sensor_id;sensor_type;location;lat;lon;timestamp;P1;durP1;ratioP1;P2;durP2;ratioP2
35306;SDS011;21420;52.196;21.416;2022-07-29T00:02:26;9.68;;;6.85;;
35306;SDS011;21420;52.196;21.416;2022-07-29T00:04:53;12.15;;;6.50;;
35306;SDS011;21420;52.196;21.416;2022-07-29T00:07:19;8.90;;;6.30;;
35306;SDS011;21420;52.196;21.416;2022-07-29T00:09:46;8.30;;;6.67;;
35306;SDS011;21420;52.196;21.416;2022-07-29T00:12:12;8.40;;;6.45;;
35306;SDS011;21420;52.196;21.416;2022-07-29T00:14:39;6.85;;;5.25;;
35306;SDS011;21420;52.196;21.416;2022-07-29T00:17:05;9.40;;;5.58;;
35306;SDS011;21420;52.196;21.416;2022-07-29T00:19:31;7.37;;;5.25;;
35306;SDS011;21420;52.196;21.416;2022-07-29T00:22:03;7.67;;;6.05;;
35306;SDS011;21420;52.196;21.416;2022-07-29T00:24:30;6.40;;;5.25;;
35306;SDS011;21420;52.196;21.416;2022-07-29T00:26:57;8.60;;;5.62;;
35306;SDS011;21420;52.196;21.416;2022-07-29T00:29:23;8.73;;;5.25;;
35306;SDS011;21420;52.196;21.416;2022-07-29T00:31:50;8.95;;;6.22;;
35306;SDS011;21420;52.196;21.416;2022-07-29T00:34:16;13.90;;;8.45;;
35306;SDS011;21420;52.196;21.416;2022-07-29T00:37:01;10.53;;;8.48;;
35306;SDS011;21420;52.196;21.416;2022-07-29T00:39:28;9.38;;;6.60;;
35306;SDS011;21420;52.196;21.416;2022-07-29T00:41:55;6.75;;;5.35;;
35306;SDS011;21420;52.196;21.416;2022-07-29T00:44:21;11.35;;;6.92;;
35306;SDS011;21420;52.196;21.416;2022-07-29T00:46:47;9.88;;;6.10;;
35306;SDS011;21420;52.196;21.416;2022-07-29T00:49:14;8.18;;;5.47;;
35306;SDS011;21420;52.196;21.416;2022-07-29T00:51:40;8.20;;;5.10;;
35306;SDS011;21420;52.196;21.416;2022-07-29T00:54:06;8.65;;;6.03;;
35306;SDS011;21420;52.196;21.416;2022-07-29T00:56:33;7.47;;;5.67;;
35306;SDS011;21420;52.196;21.416;2022-07-29T00:58:59;7.83;;;5.75;;
35306;SDS011;21420;52.196;21.416;2022-07-29T01:01:26;9.25;;;5.47;;
35306;SDS011;21420;52.196;21.416;2022-07-29T01:03:53;7.50;;;4.60;;
35306;SDS011;21420;52.196;21.416;2022-07-29T01:06:20;7.58;;;5.25;;
35306;SDS011;21420;52.196;21.416;2022-07-29T01:08:46;6.30;;;4.45;;
35306;SDS011;21420;52.196;21.416;2022-07-29T01:11:14;6.60;;;4.37;;
35306;SDS011;21420;52.196;21.416;2022-07-29T01:13:42;6.08;;;4.37;;
35306;SDS011;21420;52.196;21.416;2022-07-29T01:16:25;6.58;;;3.98;;
35306;SDS011;21420;52.196;21.416;2022-07-29T01:18:46;6.95;;;3.95;;
35306;SDS011;21420;52.196;21.416;2022-07-29T01:24:14;5.87;;;3.50;;
35306;SDS011;21420;52.196;21.416;2022-07-29T01:27:05;4.78;;;3.40;;
35306;SDS011;21420;52.196;21.416;2022-07-29T01:29:57;8.78;;;4.00;;
35306;SDS011;21420;52.196;21.416;2022-07-29T01:32:31;7.00;;;4.10;;
35306;SDS011;21420;52.196;21.416;2022-07-29T01:37:55;4.87;;;4.40;;
35306;SDS011;21420;52.196;21.416;2022-07-29T01:40:46;4.25;;;3.72;;
35306;SDS011;21420;52.196;21.416;2022-07-29T01:43:17;4.47;;;3.40;;
35306;SDS011;21420;52.196;21.416;2022-07-29T01:45:48;3.87;;;3.50;;
35306;SDS011;21420;52.196;21.416;2022-07-29T01:48:23;5.58;;;3.27;;
35306;SDS011;21420;52.196;21.416;2022-07-29T01:51:16;5.92;;;3.70;;
35306;SDS011;21420;52.196;21.416;2022-07-29T01:53:54;3.98;;;3.10;;
35306;SDS011;21420;52.196;21.416;2022-07-29T01:56:29;5.08;;;3.70;;
35306;SDS011;21420;52.196;21.416;2022-07-29T02:01:26;4.00;;;3.40;;
35306;SDS011;21420;52.196;21.416;2022-07-29T02:03:55;5.15;;;3.08;;
35306;SDS011;21420;52.196;21.416;2022-07-29T02:06:23;4.08;;;3.00;;
35306;SDS011;21420;52.196;21.416;2022-07-29T02:08:51;5.50;;;2.92;;
35306;SDS011;21420;52.196;21.416;2022-07-29T02:11:20;6.67;;;3.23;;
35306;SDS011;21420;52.196;21.416;2022-07-29T02:13:46;7.08;;;3.62;;
35306;SDS011;21420;52.196;21.416;2022-07-29T02:19:04;6.65;;;2.70;;
35306;SDS011;21420;52.196;21.416;2022-07-29T02:21:34;6.12;;;2.75;;
35306;SDS011;21420;52.196;21.416;2022-07-29T02:24:01;4.17;;;2.50;;
35306;SDS011;21420;52.196;21.416;2022-07-29T02:26:31;5.30;;;3.27;;
35306;SDS011;21420;52.196;21.416;2022-07-29T02:28:59;3.22;;;2.50;;
35306;SDS011;21420;52.196;21.416;2022-07-29T02:31:28;6.72;;;2.85;;
35306;SDS011;21420;52.196;21.416;2022-07-29T02:33:58;4.67;;;2.62;;
35306;SDS011;21420;52.196;21.416;2022-07-29T02:36:27;3.67;;;2.73;;
35306;SDS011;21420;52.196;21.416;2022-07-29T02:38:56;3.37;;;3.00;;
35306;SDS011;21420;52.196;21.416;2022-07-29T02:41:30;4.53;;;3.08;;
35306;SDS011;21420;52.196;21.416;2022-07-29T02:44:10;3.12;;;2.20;;
35306;SDS011;21420;52.196;21.416;2022-07-29T02:46:48;3.92;;;2.50;;
35306;SDS011;21420;52.196;21.416;2022-07-29T02:52:21;5.85;;;2.50;;
35306;SDS011;21420;52.196;21.416;2022-07-29T02:55:06;3.08;;;2.30;;
35306;SDS011;21420;52.196;21.416;2022-07-29T02:57:41;3.83;;;2.50;;
35306;SDS011;21420;52.196;21.416;2022-07-29T03:00:21;4.35;;;2.50;;
35306;SDS011;21420;52.196;21.416;2022-07-29T03:02:50;3.97;;;2.67;;
35306;SDS011;21420;52.196;21.416;2022-07-29T03:05:19;9.18;;;2.42;;
35306;SDS011;21420;52.196;21.416;2022-07-29T03:07:48;7.00;;;3.00;;
35306;SDS011;21420;52.196;21.416;2022-07-29T03:10:23;3.27;;;2.50;;
35306;SDS011;21420;52.196;21.416;2022-07-29T03:12:51;4.97;;;2.52;;
35306;SDS011;21420;52.196;21.416;2022-07-29T03:15:18;5.05;;;2.52;;
35306;SDS011;21420;52.196;21.416;2022-07-29T03:17:45;3.72;;;2.05;;
35306;SDS011;21420;52.196;21.416;2022-07-29T03:20:12;3.95;;;2.33;;
35306;SDS011;21420;52.196;21.416;2022-07-29T03:22:40;3.83;;;1.92;;
35306;SDS011;21420;52.196;21.416;2022-07-29T03:25:13;3.15;;;2.15;;
35306;SDS011;21420;52.196;21.416;2022-07-29T03:27:42;4.42;;;2.10;;
35306;SDS011;21420;52.196;21.416;2022-07-29T03:30:09;4.05;;;2.37;;
35306;SDS011;21420;52.196;21.416;2022-07-29T03:32:39;4.65;;;2.33;;
35306;SDS011;21420;52.196;21.416;2022-07-29T03:35:06;4.85;;;2.40;;
35306;SDS011;21420;52.196;21.416;2022-07-29T03:37:33;6.37;;;2.42;;
35306;SDS011;21420;52.196;21.416;2022-07-29T03:40:03;3.98;;;2.00;;
35306;SDS011;21420;52.196;21.416;2022-07-29T03:42:33;3.95;;;2.25;;
35306;SDS011;21420;52.196;21.416;2022-07-29T03:45:03;3.47;;;2.52;;
35306;SDS011;21420;52.196;21.416;2022-07-29T03:47:39;5.05;;;3.00;;
35306;SDS011;21420;52.196;21.416;2022-07-29T03:50:10;5.00;;;2.30;;
35306;SDS011;21420;52.196;21.416;2022-07-29T03:52:39;5.17;;;2.45;;
35306;SDS011;21420;52.196;21.416;2022-07-29T03:55:06;3.30;;;2.00;;
35306;SDS011;21420;52.196;21.416;2022-07-29T03:57:34;3.25;;;2.30;;
35306;SDS011;21420;52.196;21.416;2022-07-29T04:00:03;4.83;;;2.10;;
35306;SDS011;21420;52.196;21.416;2022-07-29T04:02:36;4.33;;;2.37;;
35306;SDS011;21420;52.196;21.416;2022-07-29T04:05:04;4.08;;;2.27;;
35306;SDS011;21420;52.196;21.416;2022-07-29T04:07:35;3.08;;;1.80;;
35306;SDS011;21420;52.196;21.416;2022-07-29T04:10:01;4.30;;;2.10;;
35306;SDS011;21420;52.196;21.416;2022-07-29T04:12:27;5.60;;;1.92;;
35306;SDS011;21420;52.196;21.416;2022-07-29T04:14:53;3.17;;;1.30;;
35306;SDS011;21420;52.196;21.416;2022-07-29T04:17:19;3.60;;;1.45;;
35306;SDS011;21420;52.196;21.416;2022-07-29T04:19:45;2.72;;;1.52;;
35306;SDS011;21420;52.196;21.416;2022-07-29T04:22:11;5.22;;;1.47;;
35306;SDS011;21420;52.196;21.416;2022-07-29T04:24:37;4.40;;;1.42;;
35306;SDS011;21420;52.196;21.416;2022-07-29T04:27:03;4.17;;;1.60;;
35306;SDS011;21420;52.196;21.416;2022-07-29T04:29:29;3.83;;;1.47;;
35306;SDS011;21420;52.196;21.416;2022-07-29T04:31:55;1.27;;;1.10;;
35306;SDS011;21420;52.196;21.416;2022-07-29T04:34:21;3.87;;;1.70;;
35306;SDS011;21420;52.196;21.416;2022-07-29T04:36:48;2.55;;;1.15;;
35306;SDS011;21420;52.196;21.416;2022-07-29T04:39:14;2.95;;;1.65;;
35306;SDS011;21420;52.196;21.416;2022-07-29T04:41:40;2.60;;;1.15;;
35306;SDS011;21420;52.196;21.416;2022-07-29T04:44:06;2.50;;;1.52;;
35306;SDS011;21420;52.196;21.416;2022-07-29T04:46:32;3.20;;;1.35;;
35306;SDS011;21420;52.196;21.416;2022-07-29T04:48:59;4.12;;;1.42;;
35306;SDS011;21420;52.196;21.416;2022-07-29T04:51:25;2.20;;;1.20;;
35306;SDS011;21420;52.196;21.416;2022-07-29T04:53:52;3.50;;;1.07;;
35306;SDS011;21420;52.196;21.416;2022-07-29T04:56:18;2.02;;;1.10;;
35306;SDS011;21420;52.196;21.416;2022-07-29T04:58:44;1.32;;;1.00;;
35306;SDS011;21420;52.196;21.416;2022-07-29T05:01:10;4.25;;;1.10;;
35306;SDS011;21420;52.196;21.416;2022-07-29T05:03:36;7.08;;;1.10;;
35306;SDS011;21420;52.196;21.416;2022-07-29T05:06:02;1.92;;;0.82;;
35306;SDS011;21420;52.196;21.416;2022-07-29T05:08:28;1.90;;;0.90;;
35306;SDS011;21420;52.196;21.416;2022-07-29T05:10:54;1.37;;;0.90;;
35306;SDS011;21420;52.196;21.416;2022-07-29T05:13:21;6.92;;;1.00;;
35306;SDS011;21420;52.196;21.416;2022-07-29T05:15:47;2.67;;;1.02;;
35306;SDS011;21420;52.196;21.416;2022-07-29T05:18:13;3.02;;;1.60;;
35306;SDS011;21420;52.196;21.416;2022-07-29T05:20:39;2.70;;;1.10;;
35306;SDS011;21420;52.196;21.416;2022-07-29T05:23:05;1.35;;;1.25;;
35306;SDS011;21420;52.196;21.416;2022-07-29T05:25:32;3.77;;;1.00;;
35306;SDS011;21420;52.196;21.416;2022-07-29T05:27:57;1.57;;;0.75;;
35306;SDS011;21420;52.196;21.416;2022-07-29T05:30:24;3.12;;;1.07;;
35306;SDS011;21420;52.196;21.416;2022-07-29T05:32:50;3.10;;;0.60;;
35306;SDS011;21420;52.196;21.416;2022-07-29T05:35:17;2.52;;;0.55;;
35306;SDS011;21420;52.196;21.416;2022-07-29T05:37:43;3.22;;;0.62;;
35306;SDS011;21420;52.196;21.416;2022-07-29T05:40:09;2.12;;;0.70;;
35306;SDS011;21420;52.196;21.416;2022-07-29T05:42:36;1.90;;;0.95;;
35306;SDS011;21420;52.196;21.416;2022-07-29T05:45:02;1.95;;;0.72;;
35306;SDS011;21420;52.196;21.416;2022-07-29T05:47:30;1.55;;;0.70;;
35306;SDS011;21420;52.196;21.416;2022-07-29T05:49:57;3.17;;;0.95;;
35306;SDS011;21420;52.196;21.416;2022-07-29T05:52:23;2.70;;;0.82;;
35306;SDS011;21420;52.196;21.416;2022-07-29T05:54:49;0.57;;;0.57;;
35306;SDS011;21420;52.196;21.416;2022-07-29T05:57:22;2.37;;;1.10;;
35306;SDS011;21420;52.196;21.416;2022-07-29T05:59:50;1.45;;;0.60;;
35306;SDS011;21420;52.196;21.416;2022-07-29T06:02:17;0.72;;;0.57;;
35306;SDS011;21420;52.196;21.416;2022-07-29T06:04:43;1.07;;;0.50;;
35306;SDS011;21420;52.196;21.416;2022-07-29T06:07:10;2.30;;;0.68;;
35306;SDS011;21420;52.196;21.416;2022-07-29T06:09:36;2.45;;;0.70;;
35306;SDS011;21420;52.196;21.416;2022-07-29T06:12:03;2.62;;;0.70;;
35306;SDS011;21420;52.196;21.416;2022-07-29T06:14:30;1.72;;;0.65;;
35306;SDS011;21420;52.196;21.416;2022-07-29T06:16:57;2.22;;;0.50;;
35306;SDS011;21420;52.196;21.416;2022-07-29T06:19:23;0.68;;;0.50;;
35306;SDS011;21420;52.196;21.416;2022-07-29T06:21:49;1.85;;;0.60;;
35306;SDS011;21420;52.196;21.416;2022-07-29T06:24:15;0.50;;;0.50;;
35306;SDS011;21420;52.196;21.416;2022-07-29T06:26:42;2.92;;;1.10;;
35306;SDS011;21420;52.196;21.416;2022-07-29T06:29:09;1.98;;;0.70;;
35306;SDS011;21420;52.196;21.416;2022-07-29T06:31:36;3.27;;;0.68;;
35306;SDS011;21420;52.196;21.416;2022-07-29T06:34:02;1.12;;;0.50;;
35306;SDS011;21420;52.196;21.416;2022-07-29T06:36:29;1.47;;;0.82;;
35306;SDS011;21420;52.196;21.416;2022-07-29T06:38:58;4.83;;;0.60;;
35306;SDS011;21420;52.196;21.416;2022-07-29T06:41:24;1.55;;;0.60;;
35306;SDS011;21420;52.196;21.416;2022-07-29T06:43:51;1.25;;;0.60;;
35306;SDS011;21420;52.196;21.416;2022-07-29T06:46:17;1.92;;;0.40;;
35306;SDS011;21420;52.196;21.416;2022-07-29T06:48:45;1.00;;;0.60;;
35306;SDS011;21420;52.196;21.416;2022-07-29T06:51:15;1.72;;;0.62;;
35306;SDS011;21420;52.196;21.416;2022-07-29T06:53:42;1.80;;;0.80;;
35306;SDS011;21420;52.196;21.416;2022-07-29T06:56:08;2.37;;;0.70;;
35306;SDS011;21420;52.196;21.416;2022-07-29T06:58:35;1.42;;;0.60;;
35306;SDS011;21420;52.196;21.416;2022-07-29T07:01:02;1.67;;;0.68;;
35306;SDS011;21420;52.196;21.416;2022-07-29T07:03:31;2.90;;;0.80;;
35306;SDS011;21420;52.196;21.416;2022-07-29T07:05:58;2.22;;;0.82;;
35306;SDS011;21420;52.196;21.416;2022-07-29T07:08:24;1.55;;;0.75;;
35306;SDS011;21420;52.196;21.416;2022-07-29T07:10:51;2.12;;;0.72;;
35306;SDS011;21420;52.196;21.416;2022-07-29T07:13:18;3.20;;;1.00;;
35306;SDS011;21420;52.196;21.416;2022-07-29T07:15:45;1.82;;;0.70;;
35306;SDS011;21420;52.196;21.416;2022-07-29T07:18:14;2.67;;;0.70;;
35306;SDS011;21420;52.196;21.416;2022-07-29T07:20:41;2.60;;;0.70;;
35306;SDS011;21420;52.196;21.416;2022-07-29T07:23:08;2.52;;;0.50;;
35306;SDS011;21420;52.196;21.416;2022-07-29T07:25:34;3.20;;;0.78;;
35306;SDS011;21420;52.196;21.416;2022-07-29T07:28:01;1.10;;;0.57;;
35306;SDS011;21420;52.196;21.416;2022-07-29T07:30:28;3.33;;;0.70;;
35306;SDS011;21420;52.196;21.416;2022-07-29T07:32:54;1.82;;;0.62;;
35306;SDS011;21420;52.196;21.416;2022-07-29T07:35:21;1.02;;;0.50;;
35306;SDS011;21420;52.196;21.416;2022-07-29T07:37:47;3.83;;;0.60;;
35306;SDS011;21420;52.196;21.416;2022-07-29T07:40:13;1.55;;;0.53;;
35306;SDS011;21420;52.196;21.416;2022-07-29T07:42:40;2.00;;;0.60;;
35306;SDS011;21420;52.196;21.416;2022-07-29T07:45:07;2.05;;;0.53;;
35306;SDS011;21420;52.196;21.416;2022-07-29T07:47:35;3.00;;;0.73;;
35306;SDS011;21420;52.196;21.416;2022-07-29T07:50:05;1.60;;;0.42;;
35306;SDS011;21420;52.196;21.416;2022-07-29T07:52:34;1.20;;;0.60;;
35306;SDS011;21420;52.196;21.416;2022-07-29T07:55:15;0.62;;;0.37;;
35306;SDS011;21420;52.196;21.416;2022-07-29T07:57:42;0.95;;;0.70;;
35306;SDS011;21420;52.196;21.416;2022-07-29T08:00:10;1.40;;;0.50;;
35306;SDS011;21420;52.196;21.416;2022-07-29T08:02:38;2.62;;;0.68;;
35306;SDS011;21420;52.196;21.416;2022-07-29T08:07:34;3.33;;;0.60;;
35306;SDS011;21420;52.196;21.416;2022-07-29T08:10:03;0.93;;;0.50;;
35306;SDS011;21420;52.196;21.416;2022-07-29T08:12:30;5.70;;;0.68;;
35306;SDS011;21420;52.196;21.416;2022-07-29T08:14:56;1.22;;;0.53;;
35306;SDS011;21420;52.196;21.416;2022-07-29T08:17:23;0.50;;;0.45;;
35306;SDS011;21420;52.196;21.416;2022-07-29T08:19:49;1.15;;;0.50;;
35306;SDS011;21420;52.196;21.416;2022-07-29T08:22:16;3.52;;;0.40;;
35306;SDS011;21420;52.196;21.416;2022-07-29T08:24:42;1.60;;;0.57;;
35306;SDS011;21420;52.196;21.416;2022-07-29T08:27:08;1.77;;;0.50;;
35306;SDS011;21420;52.196;21.416;2022-07-29T08:29:37;0.90;;;0.70;;
35306;SDS011;21420;52.196;21.416;2022-07-29T08:32:05;1.00;;;0.50;;
35306;SDS011;21420;52.196;21.416;2022-07-29T08:34:32;0.93;;;0.45;;
35306;SDS011;21420;52.196;21.416;2022-07-29T08:36:58;2.15;;;0.50;;
35306;SDS011;21420;52.196;21.416;2022-07-29T08:39:25;3.42;;;0.80;;
35306;SDS011;21420;52.196;21.416;2022-07-29T08:41:53;3.10;;;0.50;;
35306;SDS011;21420;52.196;21.416;2022-07-29T08:44:20;3.00;;;0.47;;
35306;SDS011;21420;52.196;21.416;2022-07-29T08:46:47;1.07;;;0.33;;
35306;SDS011;21420;52.196;21.416;2022-07-29T08:49:15;2.15;;;0.50;;
35306;SDS011;21420;52.196;21.416;2022-07-29T08:51:43;1.52;;;0.60;;
35306;SDS011;21420;52.196;21.416;2022-07-29T08:54:09;1.90;;;0.60;;
35306;SDS011;21420;52.196;21.416;2022-07-29T08:56:38;7.27;;;1.40;;
35306;SDS011;21420;52.196;21.416;2022-07-29T08:59:06;5.22;;;0.62;;
35306;SDS011;21420;52.196;21.416;2022-07-29T09:01:35;1.40;;;0.68;;
35306;SDS011;21420;52.196;21.416;2022-07-29T09:04:04;2.27;;;0.60;;
35306;SDS011;21420;52.196;21.416;2022-07-29T09:06:36;4.30;;;0.90;;
35306;SDS011;21420;52.196;21.416;2022-07-29T09:09:09;3.20;;;0.50;;
35306;SDS011;21420;52.196;21.416;2022-07-29T09:11:36;2.62;;;0.60;;
35306;SDS011;21420;52.196;21.416;2022-07-29T09:14:03;0.80;;;0.60;;
35306;SDS011;21420;52.196;21.416;2022-07-29T09:16:48;6.28;;;0.68;;
35306;SDS011;21420;52.196;21.416;2022-07-29T09:21:56;2.47;;;0.62;;
35306;SDS011;21420;52.196;21.416;2022-07-29T09:24:35;1.02;;;0.50;;
35306;SDS011;21420;52.196;21.416;2022-07-29T09:27:08;2.02;;;0.47;;
35306;SDS011;21420;52.196;21.416;2022-07-29T09:29:45;1.05;;;0.50;;
35306;SDS011;21420;52.196;21.416;2022-07-29T09:32:12;1.05;;;0.50;;
35306;SDS011;21420;52.196;21.416;2022-07-29T09:34:38;6.85;;;0.70;;
35306;SDS011;21420;52.196;21.416;2022-07-29T09:37:05;1.92;;;0.62;;
35306;SDS011;21420;52.196;21.416;2022-07-29T09:39:36;2.95;;;0.55;;
35306;SDS011;21420;52.196;21.416;2022-07-29T09:42:07;2.83;;;0.50;;
35306;SDS011;21420;52.196;21.416;2022-07-29T09:44:43;3.40;;;0.70;;
35306;SDS011;21420;52.196;21.416;2022-07-29T09:47:15;4.58;;;2.08;;
35306;SDS011;21420;52.196;21.416;2022-07-29T09:49:54;5.33;;;2.02;;
35306;SDS011;21420;52.196;21.416;2022-07-29T09:52:29;18.25;;;10.40;;
35306;SDS011;21420;52.196;21.416;2022-07-29T09:55:08;6.30;;;3.83;;
35306;SDS011;21420;52.196;21.416;2022-07-29T10:00:05;5.12;;;3.62;;
35306;SDS011;21420;52.196;21.416;2022-07-29T10:02:41;1.15;;;0.70;;
35306;SDS011;21420;52.196;21.416;2022-07-29T10:05:17;2.77;;;0.50;;
35306;SDS011;21420;52.196;21.416;2022-07-29T10:07:53;4.47;;;1.07;;
35306;SDS011;21420;52.196;21.416;2022-07-29T10:10:31;4.95;;;2.62;;
35306;SDS011;21420;52.196;21.416;2022-07-29T10:13:01;4.30;;;1.80;;
35306;SDS011;21420;52.196;21.416;2022-07-29T10:15:40;1.95;;;0.50;;
35306;SDS011;21420;52.196;21.416;2022-07-29T10:18:10;2.47;;;0.70;;
35306;SDS011;21420;52.196;21.416;2022-07-29T10:20:38;3.50;;;0.55;;
35306;SDS011;21420;52.196;21.416;2022-07-29T10:23:05;1.92;;;0.70;;
35306;SDS011;21420;52.196;21.416;2022-07-29T10:25:32;1.98;;;0.50;;
35306;SDS011;21420;52.196;21.416;2022-07-29T10:27:59;2.35;;;0.90;;
35306;SDS011;21420;52.196;21.416;2022-07-29T10:30:25;2.35;;;0.57;;
35306;SDS011;21420;52.196;21.416;2022-07-29T10:35:59;2.27;;;0.50;;
35306;SDS011;21420;52.196;21.416;2022-07-29T10:44:21;3.60;;;0.65;;
35306;SDS011;21420;52.196;21.416;2022-07-29T10:46:50;1.27;;;0.62;;
35306;SDS011;21420;52.196;21.416;2022-07-29T10:49:22;1.97;;;0.93;;
35306;SDS011;21420;52.196;21.416;2022-07-29T10:54:44;2.83;;;0.90;;
35306;SDS011;21420;52.196;21.416;2022-07-29T11:05:12;2.85;;;0.60;;
35306;SDS011;21420;52.196;21.416;2022-07-29T11:10:43;0.80;;;0.40;;
35306;SDS011;21420;52.196;21.416;2022-07-29T11:13:09;2.33;;;0.55;;
35306;SDS011;21420;52.196;21.416;2022-07-29T11:15:52;0.80;;;0.30;;
35306;SDS011;21420;52.196;21.416;2022-07-29T11:18:20;1.17;;;0.40;;
35306;SDS011;21420;52.196;21.416;2022-07-29T11:20:47;1.72;;;0.45;;
35306;SDS011;21420;52.196;21.416;2022-07-29T11:26:12;1.98;;;0.50;;
35306;SDS011;21420;52.196;21.416;2022-07-29T11:28:51;1.12;;;0.45;;
35306;SDS011;21420;52.196;21.416;2022-07-29T11:34:24;2.47;;;0.47;;
35306;SDS011;21420;52.196;21.416;2022-07-29T11:47:50;1.95;;;0.40;;
35306;SDS011;21420;52.196;21.416;2022-07-29T11:50:31;3.77;;;0.70;;
35306;SDS011;21420;52.196;21.416;2022-07-29T11:52:58;1.42;;;0.50;;
35306;SDS011;21420;52.196;21.416;2022-07-29T11:55:26;2.15;;;0.50;;
35306;SDS011;21420;52.196;21.416;2022-07-29T11:57:54;2.40;;;0.50;;
35306;SDS011;21420;52.196;21.416;2022-07-29T12:00:26;3.15;;;0.50;;
35306;SDS011;21420;52.196;21.416;2022-07-29T12:02:56;8.13;;;0.53;;
35306;SDS011;21420;52.196;21.416;2022-07-29T12:05:31;2.35;;;0.47;;
35306;SDS011;21420;52.196;21.416;2022-07-29T12:08:16;0.88;;;0.45;;
35306;SDS011;21420;52.196;21.416;2022-07-29T12:10:46;1.57;;;0.40;;
35306;SDS011;21420;52.196;21.416;2022-07-29T12:13:14;2.47;;;0.40;;
35306;SDS011;21420;52.196;21.416;2022-07-29T12:15:51;1.50;;;0.50;;
35306;SDS011;21420;52.196;21.416;2022-07-29T12:18:23;3.17;;;0.80;;
35306;SDS011;21420;52.196;21.416;2022-07-29T12:20:57;1.52;;;0.30;;
35306;SDS011;21420;52.196;21.416;2022-07-29T12:23:27;8.88;;;1.72;;
35306;SDS011;21420;52.196;21.416;2022-07-29T12:25:53;4.20;;;0.50;;
35306;SDS011;21420;52.196;21.416;2022-07-29T12:28:20;2.98;;;0.80;;
35306;SDS011;21420;52.196;21.416;2022-07-29T12:30:48;2.87;;;0.40;;
35306;SDS011;21420;52.196;21.416;2022-07-29T12:33:23;2.62;;;0.50;;
35306;SDS011;21420;52.196;21.416;2022-07-29T12:35:56;6.35;;;0.62;;
35306;SDS011;21420;52.196;21.416;2022-07-29T12:38:26;3.47;;;0.90;;
35306;SDS011;21420;52.196;21.416;2022-07-29T12:40:54;4.37;;;0.80;;
35306;SDS011;21420;52.196;21.416;2022-07-29T12:43:24;1.80;;;0.53;;
35306;SDS011;21420;52.196;21.416;2022-07-29T12:45:51;2.40;;;0.30;;
35306;SDS011;21420;52.196;21.416;2022-07-29T12:48:32;1.50;;;0.50;;
35306;SDS011;21420;52.196;21.416;2022-07-29T12:51:04;2.02;;;0.50;;
35306;SDS011;21420;52.196;21.416;2022-07-29T12:53:32;3.02;;;0.50;;
35306;SDS011;21420;52.196;21.416;2022-07-29T12:56:00;1.22;;;0.33;;
35306;SDS011;21420;52.196;21.416;2022-07-29T12:58:28;4.00;;;0.50;;
35306;SDS011;21420;52.196;21.416;2022-07-29T13:01:13;2.20;;;0.60;;
35306;SDS011;21420;52.196;21.416;2022-07-29T13:03:49;0.47;;;0.47;;
35306;SDS011;21420;52.196;21.416;2022-07-29T13:09:15;1.62;;;0.70;;
35306;SDS011;21420;52.196;21.416;2022-07-29T13:11:47;1.90;;;0.42;;
35306;SDS011;21420;52.196;21.416;2022-07-29T13:14:31;13.85;;;0.80;;
35306;SDS011;21420;52.196;21.416;2022-07-29T13:17:20;3.62;;;0.90;;
35306;SDS011;21420;52.196;21.416;2022-07-29T13:22:19;3.98;;;0.42;;
35306;SDS011;21420;52.196;21.416;2022-07-29T13:24:48;1.65;;;0.53;;
35306;SDS011;21420;52.196;21.416;2022-07-29T13:27:21;1.80;;;0.50;;
35306;SDS011;21420;52.196;21.416;2022-07-29T13:29:50;1.92;;;0.47;;
35306;SDS011;21420;52.196;21.416;2022-07-29T13:32:19;4.08;;;0.53;;
35306;SDS011;21420;52.196;21.416;2022-07-29T13:34:46;4.65;;;1.45;;
35306;SDS011;21420;52.196;21.416;2022-07-29T13:37:12;1.45;;;0.40;;
35306;SDS011;21420;52.196;21.416;2022-07-29T13:39:39;1.40;;;0.42;;
35306;SDS011;21420;52.196;21.416;2022-07-29T13:42:06;7.20;;;1.32;;
35306;SDS011;21420;52.196;21.416;2022-07-29T13:44:34;2.40;;;0.60;;
35306;SDS011;21420;52.196;21.416;2022-07-29T13:47:01;1.62;;;0.40;;
35306;SDS011;21420;52.196;21.416;2022-07-29T13:49:28;2.27;;;0.60;;
35306;SDS011;21420;52.196;21.416;2022-07-29T13:51:54;2.05;;;0.42;;
35306;SDS011;21420;52.196;21.416;2022-07-29T13:54:20;0.88;;;0.50;;
35306;SDS011;21420;52.196;21.416;2022-07-29T13:56:47;1.52;;;0.60;;
35306;SDS011;21420;52.196;21.416;2022-07-29T13:59:13;2.02;;;0.50;;
35306;SDS011;21420;52.196;21.416;2022-07-29T14:01:39;2.67;;;0.65;;
35306;SDS011;21420;52.196;21.416;2022-07-29T14:04:09;1.85;;;0.93;;
35306;SDS011;21420;52.196;21.416;2022-07-29T14:06:36;2.22;;;0.47;;
35306;SDS011;21420;52.196;21.416;2022-07-29T14:09:06;2.45;;;0.50;;
35306;SDS011;21420;52.196;21.416;2022-07-29T14:11:34;4.37;;;0.40;;
35306;SDS011;21420;52.196;21.416;2022-07-29T14:14:01;3.55;;;0.80;;
35306;SDS011;21420;52.196;21.416;2022-07-29T14:16:28;6.85;;;0.80;;
35306;SDS011;21420;52.196;21.416;2022-07-29T14:18:54;0.90;;;0.40;;
35306;SDS011;21420;52.196;21.416;2022-07-29T14:21:21;30.40;;;8.93;;
35306;SDS011;21420;52.196;21.416;2022-07-29T14:23:47;10.78;;;2.40;;
35306;SDS011;21420;52.196;21.416;2022-07-29T14:26:14;2.00;;;0.50;;
35306;SDS011;21420;52.196;21.416;2022-07-29T14:28:41;7.55;;;1.12;;
35306;SDS011;21420;52.196;21.416;2022-07-29T14:31:09;2.30;;;0.90;;
35306;SDS011;21420;52.196;21.416;2022-07-29T14:33:35;2.55;;;1.02;;
35306;SDS011;21420;52.196;21.416;2022-07-29T14:36:01;2.35;;;0.75;;
35306;SDS011;21420;52.196;21.416;2022-07-29T14:38:28;1.25;;;0.60;;
35306;SDS011;21420;52.196;21.416;2022-07-29T14:40:54;3.75;;;0.80;;
35306;SDS011;21420;52.196;21.416;2022-07-29T14:43:21;0.98;;;0.60;;
35306;SDS011;21420;52.196;21.416;2022-07-29T14:45:47;1.42;;;0.70;;
35306;SDS011;21420;52.196;21.416;2022-07-29T14:48:13;5.08;;;0.72;;
35306;SDS011;21420;52.196;21.416;2022-07-29T14:50:39;1.57;;;0.57;;
35306;SDS011;21420;52.196;21.416;2022-07-29T14:53:06;1.62;;;0.60;;
35306;SDS011;21420;52.196;21.416;2022-07-29T14:55:32;0.98;;;0.65;;
35306;SDS011;21420;52.196;21.416;2022-07-29T14:57:58;4.45;;;0.70;;
35306;SDS011;21420;52.196;21.416;2022-07-29T15:00:24;0.98;;;0.50;;
35306;SDS011;21420;52.196;21.416;2022-07-29T15:02:51;2.12;;;0.60;;
35306;SDS011;21420;52.196;21.416;2022-07-29T15:05:17;4.50;;;0.55;;
35306;SDS011;21420;52.196;21.416;2022-07-29T15:07:44;6.83;;;2.83;;
35306;SDS011;21420;52.196;21.416;2022-07-29T15:10:10;5.42;;;1.12;;
35306;SDS011;21420;52.196;21.416;2022-07-29T15:12:36;5.75;;;2.12;;
35306;SDS011;21420;52.196;21.416;2022-07-29T15:15:02;19.77;;;6.17;;
35306;SDS011;21420;52.196;21.416;2022-07-29T15:17:29;18.10;;;7.37;;
35306;SDS011;21420;52.196;21.416;2022-07-29T15:19:56;20.68;;;7.62;;
35306;SDS011;21420;52.196;21.416;2022-07-29T15:22:22;21.55;;;7.72;;
35306;SDS011;21420;52.196;21.416;2022-07-29T15:24:48;3.95;;;1.55;;
35306;SDS011;21420;52.196;21.416;2022-07-29T15:27:14;9.13;;;2.92;;
35306;SDS011;21420;52.196;21.416;2022-07-29T15:29:41;16.17;;;5.35;;
35306;SDS011;21420;52.196;21.416;2022-07-29T15:32:07;3.02;;;1.27;;
35306;SDS011;21420;52.196;21.416;2022-07-29T15:34:34;4.10;;;1.20;;
35306;SDS011;21420;52.196;21.416;2022-07-29T15:37:01;3.62;;;1.07;;
35306;SDS011;21420;52.196;21.416;2022-07-29T15:39:27;2.17;;;1.00;;
35306;SDS011;21420;52.196;21.416;2022-07-29T15:41:53;2.37;;;0.80;;
35306;SDS011;21420;52.196;21.416;2022-07-29T15:44:20;2.98;;;1.22;;
35306;SDS011;21420;52.196;21.416;2022-07-29T15:46:48;1.65;;;0.80;;
35306;SDS011;21420;52.196;21.416;2022-07-29T15:52:04;9.98;;;3.70;;
35306;SDS011;21420;52.196;21.416;2022-07-29T15:57:01;2.15;;;0.70;;